Time;durP1;ratioP1;P1;durP2;ratioP2;P2;SDS_P1;SDS_P2;PMS_P1;PMS_P2;Temp;Humidity;BMP_temperature;BMP_pressure;BME280_temperature;BME280_humidity;BME280_pressure;Samples;Min_cycle;Max_cycle;Signal;HPM_P1;HPM_P2
2022/06/07 00:00:59;;;;;;;9.93;9.02;;;21.60;99.90;;;;;;5074239;28;20205;-69
2022/06/07 00:03:26;;;;;;;10.00;8.73;;;21.60;99.90;;;;;;5074776;28;20232;-69
2022/06/07 00:05:53;;;;;;;10.23;9.23;;;21.50;99.90;;;;;;5071908;28;20658;-70
2022/06/07 00:08:20;;;;;;;9.32;8.45;;;21.50;99.90;;;;;;5063986;28;20221;-69
2022/06/07 00:10:47;;;;;;;10.32;9.23;;;21.40;99.90;;;;;;5074621;28;20545;-69
2022/06/07 00:13:14;;;;;;;9.63;8.75;;;21.40;99.90;;;;;;5075494;28;20289;-70
2022/06/07 00:15:42;;;;;;;10.00;9.07;;;21.40;99.90;;;;;;5074762;28;20307;-69
2022/06/07 00:18:11;;;;;;;9.35;8.45;;;21.40;99.90;;;;;;5073223;28;20208;-70
2022/06/07 00:20:40;;;;;;;9.95;9.07;;;21.40;99.90;;;;;;5069838;28;20205;-69
2022/06/07 00:23:11;;;;;;;9.65;8.65;;;21.40;99.90;;;;;;5069053;28;20220;-69
2022/06/07 00:25:38;;;;;;;11.40;10.25;;;21.40;99.90;;;;;;5074229;28;20231;-69
2022/06/07 00:28:05;;;;;;;10.70;9.23;;;21.40;99.90;;;;;;5058482;28;20217;-69
2022/06/07 00:30:33;;;;;;;10.40;9.50;;;21.40;99.90;;;;;;5074319;28;20226;-69
2022/06/07 00:33:00;;;;;;;11.48;9.65;;;21.40;99.90;;;;;;5074853;28;20209;-70
2022/06/07 00:35:28;;;;;;;11.25;10.15;;;21.40;99.90;;;;;;5073655;28;20658;-69
2022/06/07 00:37:55;;;;;;;12.45;9.55;;;21.40;99.90;;;;;;5072439;28;20575;-70
2022/06/07 00:40:22;;;;;;;10.05;9.05;;;21.30;99.90;;;;;;5071532;28;20665;-69
2022/06/07 00:42:49;;;;;;;11.93;9.57;;;21.30;99.90;;;;;;5074638;28;20716;-70
2022/06/07 00:45:22;;;;;;;10.43;9.50;;;21.30;99.90;;;;;;5071400;28;20205;-69
2022/06/07 00:47:49;;;;;;;12.25;9.68;;;21.30;99.90;;;;;;5073412;28;20209;-69
2022/06/07 00:50:23;;;;;;;10.55;9.50;;;21.30;99.90;;;;;;5073316;28;20608;-69
2022/06/07 00:52:51;;;;;;;11.57;10.10;;;21.30;99.90;;;;;;5074401;28;20285;-69
2022/06/07 00:55:18;;;;;;;11.07;10.05;;;21.30;99.90;;;;;;5070597;28;20205;-69
2022/06/07 00:57:45;;;;;;;11.90;10.65;;;21.20;99.90;;;;;;5062516;28;20216;-69
2022/06/07 01:00:16;;;;;;;13.07;10.43;;;21.20;99.90;;;;;;5066661;28;20207;-70
2022/06/07 01:02:43;;;;;;;10.57;9.45;;;21.20;99.90;;;;;;5074406;28;20236;-69
2022/06/07 01:05:10;;;;;;;10.32;9.43;;;21.20;99.90;;;;;;5074829;28;20259;-70
2022/06/07 01:13:07;;;;;;;11.20;10.18;;;21.20;99.90;;;;;;5056782;28;20201;-68
2022/06/07 01:15:34;;;;;;;12.38;11.13;;;21.20;99.90;;;;;;5067835;28;20241;-69
2022/06/07 01:18:01;;;;;;;12.98;10.85;;;21.20;99.90;;;;;;5060063;28;20202;-69
2022/06/07 01:20:29;;;;;;;12.63;11.50;;;21.20;99.90;;;;;;5073616;28;20243;-68
2022/06/07 01:22:57;;;;;;;12.13;10.82;;;21.20;99.90;;;;;;5073908;28;20240;-68
2022/06/07 01:25:24;;;;;;;13.15;11.25;;;21.20;99.90;;;;;;5058615;28;20670;-69
2022/06/07 01:27:51;;;;;;;13.05;11.73;;;21.10;99.90;;;;;;5064791;28;20289;-68
2022/06/07 01:30:18;;;;;;;12.38;11.27;;;21.20;99.90;;;;;;5062326;28;20229;-69
2022/06/07 01:32:45;;;;;;;14.80;13.10;;;21.20;99.90;;;;;;5072074;28;20209;-70
2022/06/07 01:35:12;;;;;;;14.15;11.88;;;21.10;99.90;;;;;;5073809;28;20201;-70
2022/06/07 01:37:39;;;;;;;15.38;13.77;;;21.10;99.90;;;;;;5072995;28;20218;-69
2022/06/07 01:42:53;;;;;;;14.43;13.05;;;21.10;99.90;;;;;;5064102;28;20200;-69
2022/06/07 01:45:20;;;;;;;16.00;14.20;;;21.10;99.90;;;;;;5073829;28;20213;-69
2022/06/07 01:47:47;;;;;;;18.38;14.70;;;21.20;99.90;;;;;;5068974;28;20256;-69
2022/06/07 01:50:14;;;;;;;18.50;14.57;;;21.10;99.90;;;;;;5068304;28;20248;-70
2022/06/07 01:52:41;;;;;;;15.65;14.05;;;21.00;99.90;;;;;;5070361;28;20677;-70
2022/06/07 01:55:09;;;;;;;15.93;14.27;;;21.00;99.90;;;;;;5071046;28;20217;-70
2022/06/07 01:57:36;;;;;;;16.58;14.85;;;21.00;99.90;;;;;;5076845;28;20205;-69
2022/06/07 02:00:04;;;;;;;17.58;14.60;;;21.00;99.90;;;;;;5076872;28;20201;-69
2022/06/07 02:02:31;;;;;;;16.02;14.43;;;21.00;99.90;;;;;;5074944;28;20293;-70
2022/06/07 02:04:58;;;;;;;18.08;16.13;;;21.00;99.90;;;;;;5085275;28;20212;-70
2022/06/07 02:07:25;;;;;;;16.15;14.45;;;21.00;99.90;;;;;;5074265;28;20214;-69
2022/06/07 02:09:52;;;;;;;16.85;14.48;;;21.00;99.90;;;;;;5082958;28;20228;-69
2022/06/07 02:12:20;;;;;;;16.95;15.35;;;21.00;99.90;;;;;;5083412;28;20236;-70
2022/06/07 02:14:47;;;;;;;22.08;14.90;;;20.90;99.90;;;;;;5077161;28;20205;-70
2022/06/07 02:17:14;;;;;;;15.68;14.07;;;20.90;99.90;;;;;;5073098;28;20272;-69
2022/06/07 02:19:41;;;;;;;17.17;15.38;;;20.90;99.90;;;;;;5067918;28;20220;-69
2022/06/07 02:22:08;;;;;;;16.33;14.80;;;20.90;99.90;;;;;;5072828;28;20654;-69
2022/06/07 02:24:35;;;;;;;17.90;14.95;;;20.90;99.90;;;;;;5070845;28;20270;-69
2022/06/07 02:27:07;;;;;;;17.05;15.35;;;20.80;99.90;;;;;;5076976;28;20212;-70
2022/06/07 02:29:39;;;;;;;17.73;15.35;;;20.80;99.90;;;;;;5068852;28;20226;-69
2022/06/07 02:32:09;;;;;;;17.85;15.98;;;20.80;99.90;;;;;;5066136;28;20697;-70
2022/06/07 02:34:38;;;;;;;17.15;15.45;;;20.90;99.90;;;;;;5068722;28;20201;-70
2022/06/07 02:37:07;;;;;;;16.05;14.35;;;20.80;99.90;;;;;;5075258;28;20255;-70
2022/06/07 02:39:36;;;;;;;16.50;14.85;;;20.80;99.90;;;;;;5074839;28;20205;-69
2022/06/07 02:42:05;;;;;;;17.00;15.40;;;20.80;99.90;;;;;;5076158;28;20205;-70
2022/06/07 02:44:33;;;;;;;18.63;16.17;;;20.90;99.90;;;;;;5075463;28;20202;-70
2022/06/07 02:47:01;;;;;;;17.60;15.65;;;20.90;99.90;;;;;;5074957;28;20658;-70
2022/06/07 02:49:28;;;;;;;18.38;16.58;;;20.90;99.90;;;;;;5073543;28;20583;-69
2022/06/07 02:51:55;;;;;;;18.83;16.92;;;20.90;99.90;;;;;;5074105;28;20209;-70
2022/06/07 02:54:22;;;;;;;19.60;17.17;;;20.80;99.90;;;;;;5064379;28;20209;-69
2022/06/07 02:56:49;;;;;;;18.20;16.48;;;20.80;99.90;;;;;;5062709;28;20566;-69
2022/06/07 02:59:15;;;;;;;18.20;16.30;;;20.80;99.90;;;;;;5073465;28;20632;-70
2022/06/07 03:01:42;;;;;;;20.38;18.45;;;20.70;99.90;;;;;;5069622;28;20297;-69
2022/06/07 03:04:10;;;;;;;19.73;17.70;;;20.70;99.90;;;;;;5071712;28;20646;-69
2022/06/07 03:06:37;;;;;;;17.95;16.13;;;20.70;99.90;;;;;;5075518;28;20584;-69
2022/06/07 03:09:04;;;;;;;19.58;17.75;;;20.70;99.90;;;;;;5063862;28;20225;-69
2022/06/07 03:11:31;;;;;;;18.67;16.77;;;20.70;99.90;;;;;;5074794;28;20213;-70
2022/06/07 03:13:58;;;;;;;19.52;17.05;;;20.70;99.90;;;;;;5074631;28;20658;-69
2022/06/07 03:16:25;;;;;;;20.95;18.85;;;20.70;99.90;;;;;;5072232;28;20604;-69
2022/06/07 03:18:52;;;;;;;19.90;17.92;;;20.80;99.90;;;;;;5074208;28;20557;-69
2022/06/07 03:21:20;;;;;;;19.02;17.15;;;20.70;99.90;;;;;;5069312;28;20232;-69
2022/06/07 03:23:47;;;;;;;19.95;17.40;;;20.80;99.90;;;;;;5061509;28;20296;-70
2022/06/07 03:26:15;;;;;;;21.13;16.98;;;20.80;99.90;;;;;;5064608;28;20706;-69
2022/06/07 03:28:42;;;;;;;19.45;17.40;;;20.80;99.90;;;;;;5074479;28;20696;-70
2022/06/07 03:31:13;;;;;;;19.45;17.45;;;20.80;99.90;;;;;;5065816;28;20654;-69
2022/06/07 03:33:40;;;;;;;18.67;16.77;;;20.90;99.90;;;;;;5074492;28;20613;-69
2022/06/07 03:36:10;;;;;;;18.52;16.50;;;20.90;99.90;;;;;;5073568;28;20631;-70
2022/06/07 03:38:39;;;;;;;18.13;16.42;;;20.90;99.90;;;;;;5074283;28;20205;-68
2022/06/07 03:41:06;;;;;;;18.52;16.73;;;21.00;99.90;;;;;;5064671;28;20209;-70
2022/06/07 03:43:33;;;;;;;20.80;18.67;;;21.00;99.90;;;;;;5074592;28;20594;-69
2022/06/07 03:46:08;;;;;;;21.08;18.63;;;21.10;99.90;;;;;;5073152;28;20201;-69
2022/06/07 03:48:34;;;;;;;21.08;18.85;;;21.10;99.90;;;;;;5074191;28;20200;-69
2022/06/07 03:51:01;;;;;;;21.52;19.52;;;21.20;99.90;;;;;;5073209;28;20237;-69
2022/06/07 03:53:28;;;;;;;22.15;20.05;;;21.20;99.90;;;;;;5071549;28;20205;-69
2022/06/07 03:55:56;;;;;;;21.27;19.10;;;21.20;99.90;;;;;;5074310;28;20208;-70
2022/06/07 03:58:24;;;;;;;22.33;19.13;;;21.20;99.90;;;;;;5073521;28;20295;-70
2022/06/07 04:00:51;;;;;;;21.10;18.95;;;21.30;99.90;;;;;;5072011;28;20205;-69
2022/06/07 04:03:17;;;;;;;23.60;21.13;;;21.30;99.90;;;;;;5066606;28;20208;-70
2022/06/07 04:05:46;;;;;;;23.27;20.88;;;21.30;99.90;;;;;;5072034;28;20217;-71
2022/06/07 04:08:13;;;;;;;22.67;20.38;;;21.30;99.90;;;;;;5064854;28;20214;-69
2022/06/07 04:10:46;;;;;;;24.02;20.90;;;21.30;99.90;;;;;;5067800;28;20255;-69
2022/06/07 04:13:16;;;;;;;24.30;21.95;;;21.30;99.90;;;;;;5074090;28;20669;-69
2022/06/07 04:15:42;;;;;;;23.08;20.77;;;21.30;99.90;;;;;;5069463;28;20711;-69
2022/06/07 04:18:10;;;;;;;25.20;22.65;;;21.20;99.90;;;;;;5074007;28;20213;-68
2022/06/07 04:20:37;;;;;;;24.73;22.20;;;21.30;99.90;;;;;;5069360;28;20213;-70
2022/06/07 04:23:04;;;;;;;24.00;21.65;;;21.30;99.90;;;;;;5067018;28;20209;-70
2022/06/07 04:25:33;;;;;;;24.35;21.63;;;21.30;99.90;;;;;;5060851;28;20220;-70
2022/06/07 04:28:01;;;;;;;24.63;22.00;;;21.30;99.90;;;;;;5074058;28;20220;-69
2022/06/07 04:30:30;;;;;;;24.23;21.80;;;21.40;99.90;;;;;;5067188;28;20225;-69
2022/06/07 04:32:57;;;;;;;25.08;22.60;;;21.40;99.90;;;;;;5065250;28;20213;-69
2022/06/07 04:35:24;;;;;;;24.40;22.10;;;21.40;99.90;;;;;;5063680;28;20197;-69
2022/06/07 04:37:51;;;;;;;23.85;21.30;;;21.40;99.90;;;;;;5072614;28;20217;-69
2022/06/07 04:40:18;;;;;;;22.60;20.38;;;21.40;99.90;;;;;;5072712;28;20224;-68
2022/06/07 04:42:44;;;;;;;23.48;21.17;;;21.40;99.90;;;;;;5070328;28;20212;-69
2022/06/07 04:45:14;;;;;;;24.55;22.10;;;21.30;99.90;;;;;;5071185;28;20244;-69
2022/06/07 04:47:42;;;;;;;22.85;20.60;;;21.30;99.90;;;;;;5060718;28;20757;-70
2022/06/07 04:50:12;;;;;;;24.60;22.10;;;21.40;99.90;;;;;;5072443;28;20248;-70
2022/06/07 04:52:38;;;;;;;22.83;20.65;;;21.40;99.90;;;;;;5073009;28;20658;-70
2022/06/07 04:55:06;;;;;;;21.00;18.90;;;21.50;99.90;;;;;;5072054;28;20275;-69
2022/06/07 04:57:32;;;;;;;20.00;17.88;;;21.50;99.90;;;;;;5072749;28;20205;-70
2022/06/07 04:59:59;;;;;;;20.33;16.83;;;21.60;99.90;;;;;;5067964;28;20570;-70
2022/06/07 05:02:26;;;;;;;19.55;16.17;;;21.70;99.90;;;;;;5072149;28;20202;-71
2022/06/07 05:04:54;;;;;;;20.40;15.48;;;21.70;99.90;;;;;;5070577;28;20209;-68
2022/06/07 05:07:21;;;;;;;18.25;15.95;;;21.80;99.90;;;;;;5067434;28;20219;-70
2022/06/07 05:09:48;;;;;;;17.08;15.38;;;21.90;99.90;;;;;;5072301;28;20231;-68
2022/06/07 05:12:15;;;;;;;20.77;15.75;;;22.00;99.90;;;;;;5073788;28;20211;-69
2022/06/07 05:14:42;;;;;;;17.92;14.20;;;22.10;99.90;;;;;;5059610;28;20208;-69
2022/06/07 05:17:10;;;;;;;18.08;15.05;;;22.20;99.90;;;;;;5065990;28;20255;-70
2022/06/07 05:19:36;;;;;;;19.40;15.32;;;22.20;99.90;;;;;;5071840;28;20205;-69
2022/06/07 05:22:05;;;;;;;16.98;15.27;;;22.30;99.90;;;;;;5073560;28;20206;-70
2022/06/07 05:24:32;;;;;;;16.17;14.48;;;22.30;99.90;;;;;;5073524;28;20258;-74
2022/06/07 05:27:01;;;;;;;17.50;15.65;;;22.30;99.90;;;;;;5070450;28;20209;-76
2022/06/07 05:29:33;;;;;;;16.48;14.65;;;22.30;99.90;;;;;;5070702;28;20248;-74
2022/06/07 05:32:00;;;;;;;17.27;15.40;;;22.40;99.90;;;;;;5076258;28;20197;-74
2022/06/07 05:34:27;;;;;;;20.25;15.27;;;22.40;99.90;;;;;;5066157;28;20567;-74
2022/06/07 05:36:54;;;;;;;16.42;14.73;;;22.40;99.90;;;;;;5075938;28;20629;-74
2022/06/07 05:39:24;;;;;;;17.55;14.30;;;22.40;99.90;;;;;;5077060;28;20253;-74
2022/06/07 05:41:51;;;;;;;16.00;13.98;;;22.40;99.90;;;;;;5061645;28;20217;-74
2022/06/07 05:44:19;;;;;;;16.10;14.45;;;22.40;99.90;;;;;;5073034;28;20209;-72
2022/06/07 05:46:47;;;;;;;17.15;15.48;;;22.40;99.90;;;;;;5074563;28;20565;-73
2022/06/07 05:49:15;;;;;;;16.63;14.93;;;22.40;99.90;;;;;;5075255;28;20213;-73
2022/06/07 05:51:42;;;;;;;15.75;14.15;;;22.40;99.90;;;;;;5075375;28;20830;-72
2022/06/07 05:54:12;;;;;;;15.48;13.88;;;22.40;99.90;;;;;;5074098;28;20566;-72
2022/06/07 05:56:40;;;;;;;14.63;13.25;;;22.40;99.90;;;;;;5060729;28;20577;-73
2022/06/07 05:59:08;;;;;;;16.42;14.48;;;22.50;99.90;;;;;;5067347;28;20239;-73
2022/06/07 06:01:35;;;;;;;19.55;15.93;;;22.50;99.90;;;;;;5072385;28;20213;-70
2022/06/07 06:04:03;;;;;;;18.92;14.90;;;22.50;99.90;;;;;;5059311;28;20210;-67
2022/06/07 06:06:31;;;;;;;17.83;15.18;;;22.50;99.90;;;;;;5074786;28;20630;-69
2022/06/07 06:11:44;;;;;;;21.58;14.93;;;22.40;99.90;;;;;;5076707;28;20220;-69
2022/06/07 06:14:11;;;;;;;19.30;14.15;;;22.40;99.90;;;;;;5073485;28;20202;-68
2022/06/07 06:16:38;;;;;;;18.80;14.95;;;22.40;99.90;;;;;;5075908;28;20232;-69
2022/06/07 06:19:06;;;;;;;23.42;14.95;;;22.40;99.90;;;;;;5075556;28;20201;-69
2022/06/07 06:21:35;;;;;;;22.73;14.20;;;22.50;99.90;;;;;;5075930;28;20869;-69
2022/06/07 06:24:02;;;;;;;18.83;14.23;;;22.40;99.90;;;;;;5076237;28;20652;-70
2022/06/07 06:26:29;;;;;;;22.08;15.07;;;22.40;99.90;;;;;;5072196;28;20243;-68
2022/06/07 06:28:57;;;;;;;22.20;14.13;;;22.30;99.90;;;;;;5071107;28;20590;-67
2022/06/07 06:31:24;;;;;;;21.83;15.02;;;22.30;99.90;;;;;;5074935;28;20232;-68
2022/06/07 06:33:54;;;;;;;18.33;15.00;;;22.40;99.90;;;;;;5060360;28;20213;-68
2022/06/07 06:36:23;;;;;;;18.45;14.55;;;22.30;99.90;;;;;;5073594;28;20210;-67
2022/06/07 06:38:50;;;;;;;16.65;14.27;;;22.40;99.90;;;;;;5061420;28;20205;-67
2022/06/07 06:41:18;;;;;;;23.30;15.18;;;22.40;99.90;;;;;;5059904;28;20297;-68
2022/06/07 06:43:46;;;;;;;16.90;13.82;;;22.50;99.90;;;;;;5069015;28;20200;-68
2022/06/07 06:46:16;;;;;;;13.68;12.27;;;22.60;99.90;;;;;;5069782;28;20410;-67
2022/06/07 06:48:44;;;;;;;16.80;12.73;;;22.60;99.90;;;;;;5059693;28;20205;-67
2022/06/07 06:51:12;;;;;;;13.65;12.32;;;22.70;99.90;;;;;;5067452;28;20233;-68
2022/06/07 06:53:41;;;;;;;13.23;11.82;;;22.80;99.90;;;;;;5074169;28;20212;-67
2022/06/07 06:56:08;;;;;;;13.45;11.05;;;22.90;99.90;;;;;;5074793;28;20256;-68
2022/06/07 06:58:36;;;;;;;11.77;10.52;;;23.00;99.90;;;;;;5073642;28;20579;-67
2022/06/07 07:01:05;;;;;;;12.27;10.98;;;23.10;99.90;;;;;;5072941;28;20201;-67
2022/06/07 07:03:34;;;;;;;12.63;10.15;;;23.30;99.90;;;;;;5074440;28;20282;-67
2022/06/07 07:06:01;;;;;;;11.38;9.52;;;23.30;99.90;;;;;;5074085;28;20259;-67
2022/06/07 07:08:29;;;;;;;15.98;11.60;;;23.50;99.90;;;;;;5072366;28;20208;-67
2022/06/07 07:11:07;;;;;;;11.00;9.82;;;23.50;99.90;;;;;;5081528;28;20217;-67
2022/06/07 07:13:34;;;;;;;10.35;9.43;;;23.60;99.90;;;;;;5087949;28;20296;-68
2022/06/07 07:16:00;;;;;;;11.20;9.85;;;23.70;99.90;;;;;;5086860;28;20236;-67
2022/06/07 07:18:27;;;;;;;12.02;9.68;;;23.80;99.90;;;;;;5087448;28;20251;-67
2022/06/07 07:20:55;;;;;;;10.85;8.52;;;23.90;99.90;;;;;;5084793;28;20209;-67
2022/06/07 07:23:24;;;;;;;11.35;9.32;;;23.90;99.90;;;;;;5087720;28;20561;-67
2022/06/07 07:25:51;;;;;;;14.45;9.27;;;24.00;99.90;;;;;;5075794;28;20215;-67
2022/06/07 07:28:18;;;;;;;9.15;8.25;;;24.20;99.90;;;;;;5074060;28;20557;-68
2022/06/07 07:30:45;;;;;;;10.20;9.20;;;24.10;99.90;;;;;;5073340;28;20221;-68
2022/06/07 07:33:12;;;;;;;11.18;7.90;;;24.20;99.90;;;;;;5073976;28;20201;-67
2022/06/07 07:35:39;;;;;;;9.32;8.50;;;24.30;99.90;;;;;;5073508;28;20201;-67
2022/06/07 07:38:08;;;;;;;10.30;9.23;;;24.50;99.90;;;;;;5060605;28;20210;-67
2022/06/07 07:40:34;;;;;;;8.68;7.88;;;24.60;99.90;;;;;;5072926;28;20287;-67
2022/06/07 07:43:01;;;;;;;9.63;7.93;;;24.80;99.90;;;;;;5072426;28;20216;-68
2022/06/07 07:45:28;;;;;;;8.00;7.30;;;24.80;99.90;;;;;;5072617;28;20202;-68
2022/06/07 07:47:55;;;;;;;12.07;7.45;;;24.90;99.90;;;;;;5067030;28;20234;-68
2022/06/07 07:50:22;;;;;;;9.77;8.23;;;24.90;99.90;;;;;;5069409;28;20221;-67
2022/06/07 07:52:49;;;;;;;10.30;8.18;;;24.90;99.90;;;;;;5072991;28;20201;-70
2022/06/07 07:55:17;;;;;;;9.10;8.20;;;25.10;99.90;;;;;;5072542;28;20209;-68
2022/06/07 07:57:44;;;;;;;11.40;8.15;;;25.30;99.90;;;;;;5072242;28;20205;-71
2022/06/07 08:00:12;;;;;;;9.65;8.55;;;25.40;99.90;;;;;;5072581;28;20205;-67
2022/06/07 08:02:38;;;;;;;8.68;7.78;;;25.60;99.90;;;;;;5073637;28;20212;-69
2022/06/07 08:05:06;;;;;;;8.77;7.88;;;25.70;99.90;;;;;;5075869;28;20220;-68
2022/06/07 08:07:34;;;;;;;8.73;7.82;;;25.80;99.90;;;;;;5076281;28;20612;-70
2022/06/07 08:10:01;;;;;;;11.00;7.80;;;25.90;99.90;;;;;;5079065;28;20216;-68
2022/06/07 08:12:31;;;;;;;8.35;7.43;;;26.10;99.90;;;;;;5084447;28;20710;-68
2022/06/07 08:14:58;;;;;;;8.75;7.95;;;26.20;99.90;;;;;;5081364;28;20287;-68
2022/06/07 08:17:25;;;;;;;7.80;7.00;;;26.30;99.90;;;;;;5076813;28;20236;-67
2022/06/07 08:19:52;;;;;;;11.82;7.95;;;26.40;99.90;;;;;;5080215;28;20216;-67
2022/06/07 08:22:19;;;;;;;9.75;8.10;;;26.30;99.90;;;;;;5066803;28;20232;-68
2022/06/07 08:24:46;;;;;;;10.20;7.43;;;26.30;99.90;;;;;;5071197;28;20206;-69
2022/06/07 08:27:13;;;;;;;11.10;8.10;;;26.30;99.90;;;;;;5073760;28;20205;-68
2022/06/07 08:29:42;;;;;;;10.93;7.82;;;26.30;99.90;;;;;;5071833;28;20312;-69
2022/06/07 08:32:09;;;;;;;8.82;8.05;;;26.30;99.90;;;;;;5070427;28;20583;-71
2022/06/07 08:37:37;;;;;;;9.10;8.20;;;26.30;99.30;;;;;;5070962;28;20196;-70
2022/06/07 08:40:11;;;;;;;9.43;8.15;;;26.40;99.00;;;;;;5060479;28;20628;-70
2022/06/07 08:42:42;;;;;;;8.18;7.22;;;26.50;98.40;;;;;;5062123;28;20201;-69
2022/06/07 08:45:16;;;;;;;9.55;7.70;;;26.60;98.10;;;;;;5072430;28;20654;-70
2022/06/07 08:47:48;;;;;;;7.63;6.90;;;26.60;97.70;;;;;;5064521;28;20205;-69
2022/06/07 08:50:19;;;;;;;8.00;7.25;;;26.80;97.80;;;;;;5063389;28;20588;-70
2022/06/07 08:52:49;;;;;;;7.95;6.97;;;27.00;97.10;;;;;;5067075;28;20237;-69
2022/06/07 08:55:20;;;;;;;7.78;7.07;;;27.00;96.30;;;;;;5066410;28;20206;-70
2022/06/07 08:57:54;;;;;;;7.72;7.13;;;27.10;96.00;;;;;;5067007;28;20209;-71
2022/06/07 09:00:25;;;;;;;9.93;7.57;;;27.10;95.70;;;;;;5088600;28;20211;-71
2022/06/07 09:03:21;;;;;;;12.30;6.85;;;27.20;95.30;;;;;;5069448;28;20201;-71
2022/06/07 09:05:53;;;;;;;7.03;6.32;;;27.50;95.10;;;;;;5067278;28;20795;-71
2022/06/07 09:08:20;;;;;;;8.30;6.88;;;27.70;94.90;;;;;;5071756;28;20201;-70
2022/06/07 09:13:35;;;;;;;9.05;7.30;;;28.10;93.30;;;;;;5069014;28;20192;-71
2022/06/07 09:16:05;;;;;;;8.07;7.15;;;28.30;92.80;;;;;;5072832;28;20298;-72
2022/06/07 09:18:33;;;;;;;7.63;7.03;;;28.60;92.40;;;;;;5073702;28;20203;-72
2022/06/07 09:21:06;;;;;;;7.90;6.43;;;28.80;91.30;;;;;;5072928;28;20201;-71
2022/06/07 09:23:37;;;;;;;8.10;7.07;;;29.00;90.70;;;;;;5077872;28;20689;-73
2022/06/07 09:26:16;;;;;;;7.97;6.63;;;29.10;90.00;;;;;;5076777;28;20203;-71
2022/06/07 09:28:47;;;;;;;7.47;6.75;;;29.20;88.80;;;;;;5076846;28;20229;-70
2022/06/07 09:31:21;;;;;;;9.13;8.27;;;29.30;88.00;;;;;;5074074;28;20239;-72
2022/06/07 09:33:52;;;;;;;8.45;6.65;;;29.40;86.70;;;;;;5076188;28;20211;-72
2022/06/07 09:36:22;;;;;;;7.55;6.38;;;29.60;86.40;;;;;;5073561;28;20282;-72
2022/06/07 09:38:52;;;;;;;9.75;7.00;;;29.90;84.80;;;;;;5074270;28;20209;-71
2022/06/07 09:41:37;;;;;;;8.40;7.65;;;30.10;82.70;;;;;;5076890;28;20197;-70
2022/06/07 09:44:13;;;;;;;7.88;7.07;;;30.00;81.70;;;;;;5076141;28;20561;-72
2022/06/07 09:46:43;;;;;;;7.07;6.47;;;29.80;81.50;;;;;;5076243;28;20224;-71
2022/06/07 09:49:25;;;;;;;7.53;6.88;;;29.60;81.30;;;;;;5076561;28;20244;-72
2022/06/07 09:51:53;;;;;;;8.32;5.90;;;29.30;80.80;;;;;;5076096;28;20229;-70
2022/06/07 09:54:22;;;;;;;6.68;6.18;;;29.00;80.30;;;;;;5066995;28;20245;-70
2022/06/07 09:57:06;;;;;;;9.90;6.10;;;28.70;80.70;;;;;;5068461;28;20205;-71
2022/06/07 09:59:44;;;;;;;7.40;6.32;;;28.50;81.70;;;;;;5074182;28;20201;-71
2022/06/07 10:02:49;;;;;;;7.47;6.78;;;28.20;82.30;;;;;;5062954;28;20221;-70
2022/06/07 10:05:23;;;;;;;10.13;6.53;;;28.00;82.90;;;;;;5022514;28;20651;-70
2022/06/07 10:07:57;;;;;;;8.15;6.55;;;27.80;83.70;;;;;;5074585;28;20197;-70
2022/06/07 10:10:29;;;;;;;7.22;6.60;;;27.70;84.10;;;;;;5071970;28;20657;-71
2022/06/07 10:13:12;;;;;;;7.75;6.68;;;27.70;84.40;;;;;;5074828;28;20228;-70
2022/06/07 10:15:42;;;;;;;6.85;6.25;;;27.60;84.60;;;;;;5072199;28;20323;-72
2022/06/07 10:18:23;;;;;;;7.88;6.75;;;27.50;84.80;;;;;;5073052;28;20204;-70
2022/06/07 10:21:08;;;;;;;8.27;7.57;;;27.50;84.90;;;;;;5065951;28;20201;-70
2022/06/07 10:23:52;;;;;;;7.00;5.95;;;27.50;85.10;;;;;;5072899;28;20197;-70
2022/06/07 10:26:27;;;;;;;8.27;6.30;;;27.50;85.30;;;;;;5073790;28;20205;-71
2022/06/07 10:29:07;;;;;;;8.38;6.38;;;27.70;85.90;;;;;;5062943;28;20643;-71
2022/06/07 10:31:42;;;;;;;7.70;6.78;;;27.90;85.20;;;;;;5061687;28;20325;-70
2022/06/07 10:34:18;;;;;;;7.53;6.70;;;28.20;84.40;;;;;;5072851;28;20201;-71
2022/06/07 10:36:52;;;;;;;7.80;7.00;;;28.30;83.70;;;;;;5074259;28;20209;-71
2022/06/07 10:39:41;;;;;;;7.45;6.75;;;28.50;83.10;;;;;;5073529;28;20223;-69
2022/06/07 10:42:18;;;;;;;7.57;6.88;;;28.50;82.20;;;;;;5074901;28;20625;-71
2022/06/07 10:44:52;;;;;;;7.80;7.10;;;28.60;82.40;;;;;;5062735;28;20220;-70
2022/06/07 10:47:24;;;;;;;9.55;7.53;;;28.40;82.30;;;;;;5073813;28;20239;-71
2022/06/07 10:49:59;;;;;;;9.75;7.90;;;28.30;82.90;;;;;;5072527;28;20223;-70
2022/06/07 10:52:34;;;;;;;7.60;6.93;;;28.20;83.10;;;;;;5073547;28;20571;-70
2022/06/07 10:55:18;;;;;;;9.30;7.35;;;28.10;83.30;;;;;;5078153;28;20203;-73
2022/06/07 10:57:57;;;;;;;7.70;7.00;;;28.00;83.50;;;;;;5073879;28;20288;-73
2022/06/07 11:00:35;;;;;;;8.27;7.15;;;28.00;83.50;;;;;;5069202;28;20244;-73
2022/06/07 11:03:12;;;;;;;8.15;7.35;;;28.10;83.30;;;;;;5070371;28;20200;-71
2022/06/07 11:11:18;;;;;;;7.55;6.85;;;28.20;82.80;;;;;;5070236;28;20758;-70
2022/06/07 11:14:05;;;;;;;7.25;6.65;;;28.30;82.80;;;;;;5076749;28;20217;-71
2022/06/07 11:16:44;;;;;;;9.45;6.78;;;28.30;82.30;;;;;;5061529;28;20229;-70
2022/06/07 11:19:11;;;;;;;7.47;6.60;;;28.40;82.20;;;;;;5074900;28;20216;-69
2022/06/07 11:21:43;;;;;;;7.75;7.05;;;28.60;82.20;;;;;;5074760;28;20204;-71
2022/06/07 11:24:26;;;;;;;11.35;8.10;;;28.70;81.90;;;;;;5071110;28;20523;-72
2022/06/07 11:27:15;;;;;;;10.32;8.32;;;28.70;83.20;;;;;;5073118;28;20209;-71
2022/06/07 11:29:42;;;;;;;9.13;7.93;;;28.70;84.00;;;;;;5077720;28;20228;-72
2022/06/07 11:32:40;;;;;;;8.32;7.50;;;28.80;84.80;;;;;;5063735;28;20229;-70
2022/06/07 11:35:42;;;;;;;9.15;8.18;;;29.00;84.90;;;;;;5082080;28;20206;-71
2022/06/07 11:38:32;;;;;;;12.60;8.13;;;29.10;84.20;;;;;;5068190;28;20599;-71
2022/06/07 11:41:41;;;;;;;8.25;7.15;;;29.30;83.80;;;;;;5068930;28;20198;-71
2022/06/07 11:44:29;;;;;;;12.35;8.20;;;29.40;83.50;;;;;;5070483;28;20220;-71
2022/06/07 11:47:00;;;;;;;10.57;8.45;;;29.30;83.20;;;;;;5075203;28;20193;-70
2022/06/07 11:49:41;;;;;;;11.57;8.57;;;29.20;83.70;;;;;;5065906;28;20201;-70
2022/06/07 11:52:25;;;;;;;9.10;7.95;;;28.90;84.20;;;;;;5068709;28;20320;-70
2022/06/07 11:54:57;;;;;;;9.70;7.75;;;28.70;84.50;;;;;;5068066;28;20659;-70
2022/06/07 11:57:30;;;;;;;10.13;7.93;;;28.60;84.00;;;;;;5071579;28;20197;-71
2022/06/07 11:59:59;;;;;;;10.07;7.25;;;28.40;83.50;;;;;;5071745;28;20214;-70
2022/06/07 12:02:30;;;;;;;11.02;7.15;;;28.30;83.60;;;;;;5075343;28;20217;-70
2022/06/07 12:05:25;;;;;;;9.18;7.45;;;28.30;83.80;;;;;;5072149;28;20211;-69
2022/06/07 12:07:55;;;;;;;8.23;7.38;;;28.50;83.80;;;;;;5069382;28;20205;-70
2022/06/07 12:10:29;;;;;;;8.10;7.30;;;28.70;83.60;;;;;;5074695;28;20201;-71
2022/06/07 12:12:58;;;;;;;8.30;7.40;;;29.00;83.10;;;;;;5073660;28;20228;-71
2022/06/07 12:15:30;;;;;;;7.88;7.13;;;29.20;82.70;;;;;;5074131;28;20208;-70
2022/06/07 12:17:59;;;;;;;8.13;7.10;;;29.40;82.70;;;;;;5072810;28;20213;-71
2022/06/07 12:20:30;;;;;;;7.95;7.20;;;29.70;82.30;;;;;;5078103;28;20208;-70
2022/06/07 12:22:58;;;;;;;9.45;7.25;;;29.90;81.30;;;;;;5077988;28;20579;-70
2022/06/07 12:25:28;;;;;;;10.65;7.65;;;30.10;80.10;;;;;;5069290;28;20211;-71
2022/06/07 12:27:56;;;;;;;9.27;7.78;;;30.30;79.20;;;;;;5067869;28;20296;-71
2022/06/07 12:30:28;;;;;;;8.30;7.50;;;30.40;78.00;;;;;;5074640;28;20221;-70
2022/06/07 12:32:55;;;;;;;8.80;7.22;;;30.40;77.30;;;;;;5066274;28;20236;-71
2022/06/07 12:35:25;;;;;;;9.55;8.05;;;30.40;76.80;;;;;;5072659;28;20213;-72
2022/06/07 12:37:56;;;;;;;11.45;7.68;;;30.20;76.70;;;;;;5070703;28;20208;-71
2022/06/07 12:40:49;;;;;;;8.23;7.43;;;30.10;76.40;;;;;;5082808;28;20205;-70
2022/06/07 12:43:22;;;;;;;13.50;8.40;;;29.80;76.70;;;;;;5076144;28;20547;-71
2022/06/07 12:45:58;;;;;;;11.80;8.48;;;29.60;77.00;;;;;;5068904;28;20585;-71
2022/06/07 12:48:26;;;;;;;8.07;7.38;;;29.30;77.50;;;;;;5077222;28;20197;-71
2022/06/07 12:50:55;;;;;;;13.25;8.40;;;29.10;78.30;;;;;;5083568;28;20201;-71
2022/06/07 12:53:24;;;;;;;8.63;7.80;;;28.90;78.50;;;;;;5086839;28;20229;-71
2022/06/07 12:55:58;;;;;;;8.57;7.18;;;28.60;78.90;;;;;;5072826;28;20205;-73
2022/06/07 12:58:29;;;;;;;9.05;8.00;;;28.50;79.70;;;;;;5069335;28;20193;-73
2022/06/07 13:00:56;;;;;;;10.05;7.50;;;28.30;80.20;;;;;;5078490;28;20200;-73
2022/06/07 13:03:28;;;;;;;9.50;8.68;;;28.10;80.50;;;;;;5073757;28;20197;-73
2022/06/07 13:05:59;;;;;;;11.35;7.75;;;28.00;80.90;;;;;;5079606;28;20276;-72
2022/06/07 13:08:33;;;;;;;8.05;7.13;;;27.80;81.20;;;;;;5064680;28;20198;-72
2022/06/07 13:11:01;;;;;;;8.27;7.57;;;27.80;82.10;;;;;;5069685;28;20212;-71
2022/06/07 13:13:34;;;;;;;8.75;7.95;;;27.80;82.50;;;;;;5069955;28;20244;-70